Time;durP1;ratioP1;P1;durP2;ratioP2;P2;SDS_P1;SDS_P2;PMS_P1;PMS_P2;Temp;Humidity;BMP_temperature;BMP_pressure;BME280_temperature;BME280_humidity;BME280_pressure;Samples;Min_cycle;Max_cycle;Signal;HPM_P1;HPM_P2
2023/11/24 00:00:46;;;;;;;6.40;1.85;;;;;;;;;;6282185;22;20247;-78
2023/11/24 00:03:13;;;;;;;4.18;1.42;;;;;;;;;;6282440;22;20204;-79
2023/11/24 00:05:41;;;;;;;4.22;1.55;;;;;;;;;;6281069;22;20176;-78
2023/11/24 00:08:08;;;;;;;2.00;1.25;;;;;;;;;;6280573;22;20275;-78
2023/11/24 00:10:37;;;;;;;2.45;1.35;;;;;;;;;;6280252;22;20279;-78
2023/11/24 00:13:04;;;;;;;5.25;1.27;;;;;;;;;;6282342;22;20251;-78
2023/11/24 00:15:32;;;;;;;1.25;0.80;;;;;;;;;;6282638;22;20180;-78
2023/11/24 00:18:01;;;;;;;2.75;1.33;;;;;;;;;;6283339;22;20235;-78
2023/11/24 00:20:29;;;;;;;5.20;1.33;;;;;;;;;;6282731;22;20172;-78
2023/11/24 00:22:57;;;;;;;3.08;1.08;;;;;;;;;;6283449;22;20271;-78
2023/11/24 00:25:24;;;;;;;1.40;0.93;;;;;;;;;;6281882;22;20228;-77
2023/11/24 00:27:55;;;;;;;2.72;0.82;;;;;;;;;;6281275;22;20251;-78
2023/11/24 00:30:22;;;;;;;4.55;1.42;;;;;;;;;;6281950;22;20263;-78
2023/11/24 00:32:49;;;;;;;2.03;1.10;;;;;;;;;;6281412;22;20172;-78
2023/11/24 00:35:17;;;;;;;2.85;1.55;;;;;;;;;;6281490;22;20247;-77
2023/11/24 00:37:45;;;;;;;5.47;2.00;;;;;;;;;;6280493;22;20347;-78
2023/11/24 00:40:14;;;;;;;5.15;1.45;;;;;;;;;;6280701;22;20548;-78
2023/11/24 00:42:41;;;;;;;2.08;1.27;;;;;;;;;;6280958;22;20183;-77
2023/11/24 00:45:11;;;;;;;3.38;1.20;;;;;;;;;;6280105;22;20182;-78
2023/11/24 00:47:39;;;;;;;2.95;1.27;;;;;;;;;;6280190;22;20275;-77
2023/11/24 00:50:09;;;;;;;2.72;1.48;;;;;;;;;;6279603;22;20176;-78
2023/11/24 00:52:37;;;;;;;1.17;1.05;;;;;;;;;;6280637;22;20574;-78
2023/11/24 00:55:05;;;;;;;7.10;1.40;;;;;;;;;;6281082;22;20589;-78
2023/11/24 00:57:33;;;;;;;2.67;1.38;;;;;;;;;;6278115;22;20300;-78
2023/11/24 01:00:04;;;;;;;4.03;1.50;;;;;;;;;;6279869;22;20176;-77
2023/11/24 01:02:33;;;;;;;4.78;1.70;;;;;;;;;;6280653;22;20160;-78
2023/11/24 01:05:00;;;;;;;3.63;1.58;;;;;;;;;;6280660;22;20557;-78
2023/11/24 01:07:28;;;;;;;8.20;1.75;;;;;;;;;;6279841;22;20722;-78
2023/11/24 01:09:56;;;;;;;4.22;1.50;;;;;;;;;;6278384;22;20279;-78
2023/11/24 01:12:23;;;;;;;5.95;2.35;;;;;;;;;;6279077;22;20259;-78
2023/11/24 01:14:50;;;;;;;3.17;1.60;;;;;;;;;;6278412;22;20183;-77
2023/11/24 01:17:18;;;;;;;4.63;1.45;;;;;;;;;;6279137;22;20196;-77
2023/11/24 01:19:48;;;;;;;4.25;1.77;;;;;;;;;;6277290;22;20172;-77
2023/11/24 01:22:15;;;;;;;4.80;1.70;;;;;;;;;;6277135;22;20172;-78
2023/11/24 01:24:44;;;;;;;3.63;1.23;;;;;;;;;;6277318;22;20274;-77
2023/11/24 01:27:11;;;;;;;3.95;2.25;;;;;;;;;;6277436;22;20222;-78
2023/11/24 01:29:39;;;;;;;6.07;1.70;;;;;;;;;;6277846;22;20657;-78
2023/11/24 01:32:07;;;;;;;3.50;1.52;;;;;;;;;;6277261;22;20200;-77
2023/11/24 01:34:35;;;;;;;2.88;1.50;;;;;;;;;;6276716;22;20637;-77
2023/11/24 01:37:04;;;;;;;5.50;1.63;;;;;;;;;;6278013;22;20176;-78
2023/11/24 01:39:32;;;;;;;3.40;2.25;;;;;;;;;;6278224;22;20172;-78
2023/11/24 01:42:00;;;;;;;3.90;1.70;;;;;;;;;;6276904;22;20226;-78
2023/11/24 01:44:27;;;;;;;3.53;2.10;;;;;;;;;;6277666;22;20575;-78
2023/11/24 01:46:55;;;;;;;4.35;2.13;;;;;;;;;;6278143;22;20675;-78
2023/11/24 01:49:22;;;;;;;3.95;2.05;;;;;;;;;;6276770;22;20220;-77
2023/11/24 01:51:50;;;;;;;4.65;1.45;;;;;;;;;;6277566;22;20271;-78
2023/11/24 01:54:20;;;;;;;3.85;1.42;;;;;;;;;;6276870;22;20580;-77
2023/11/24 01:56:49;;;;;;;8.02;1.63;;;;;;;;;;6277195;22;20211;-77
2023/11/24 01:59:16;;;;;;;5.80;1.80;;;;;;;;;;6276824;22;20748;-78
2023/11/24 02:01:44;;;;;;;9.07;2.10;;;;;;;;;;6278062;22;20533;-78
2023/11/24 02:04:12;;;;;;;5.07;1.67;;;;;;;;;;6277609;22;20215;-77
2023/11/24 02:06:39;;;;;;;4.65;2.08;;;;;;;;;;6277200;22;20672;-77
2023/11/24 02:09:09;;;;;;;4.88;1.63;;;;;;;;;;6277282;22;20515;-77
2023/11/24 02:11:38;;;;;;;1.83;1.13;;;;;;;;;;6278397;22;20192;-77
2023/11/24 02:14:05;;;;;;;3.28;1.60;;;;;;;;;;6277776;22;20172;-78
2023/11/24 02:16:33;;;;;;;7.57;1.65;;;;;;;;;;6277151;22;20648;-77
2023/11/24 02:19:01;;;;;;;6.53;1.77;;;;;;;;;;6278476;22;20283;-77
2023/11/24 02:21:28;;;;;;;3.22;1.55;;;;;;;;;;6278498;22;20565;-78
2023/11/24 02:23:57;;;;;;;3.28;1.65;;;;;;;;;;6276724;22;20235;-77
2023/11/24 02:26:26;;;;;;;2.42;1.52;;;;;;;;;;6277086;22;20182;-77
2023/11/24 02:28:54;;;;;;;2.50;1.75;;;;;;;;;;6276374;22;20199;-77
2023/11/24 02:31:21;;;;;;;3.72;2.28;;;;;;;;;;6277433;22;20511;-77
2023/11/24 02:33:50;;;;;;;7.25;2.03;;;;;;;;;;6276895;22;20172;-78
2023/11/24 02:36:23;;;;;;;3.72;1.70;;;;;;;;;;6277183;22;20173;-78
2023/11/24 02:38:51;;;;;;;5.18;2.08;;;;;;;;;;6277539;22;20200;-77
2023/11/24 02:41:21;;;;;;;4.80;1.50;;;;;;;;;;6276835;22;20172;-77
2023/11/24 02:43:49;;;;;;;2.97;1.45;;;;;;;;;;6277051;22;20187;-78
2023/11/24 02:46:17;;;;;;;4.40;1.73;;;;;;;;;;6277720;22;20181;-77
2023/11/24 02:48:46;;;;;;;4.45;1.83;;;;;;;;;;6277437;22;20272;-78
2023/11/24 02:51:14;;;;;;;4.85;1.67;;;;;;;;;;6277613;22;20668;-78
2023/11/24 02:53:43;;;;;;;3.95;1.50;;;;;;;;;;6278347;22;20168;-77
2023/11/24 02:56:11;;;;;;;3.58;1.90;;;;;;;;;;6277848;22;20207;-78
2023/11/24 02:58:40;;;;;;;3.40;1.85;;;;;;;;;;6279164;22;20561;-78
2023/11/24 03:01:07;;;;;;;4.10;2.00;;;;;;;;;;6280259;22;20251;-78
2023/11/24 03:03:35;;;;;;;8.25;3.00;;;;;;;;;;6279277;22;20275;-77
2023/11/24 03:06:05;;;;;;;7.13;1.70;;;;;;;;;;6280159;22;20232;-77
2023/11/24 03:08:32;;;;;;;6.75;1.73;;;;;;;;;;6279330;22;20207;-78
2023/11/24 03:11:03;;;;;;;3.33;1.58;;;;;;;;;;6279693;22;20231;-78
2023/11/24 03:13:30;;;;;;;6.78;2.08;;;;;;;;;;6278859;22;20695;-78
2023/11/24 03:15:59;;;;;;;3.70;1.83;;;;;;;;;;6280285;22;20255;-78
2023/11/24 03:18:26;;;;;;;3.45;1.38;;;;;;;;;;6280327;22;20248;-78
2023/11/24 03:20:54;;;;;;;3.78;1.58;;;;;;;;;;6279561;22;20232;-77
2023/11/24 03:23:21;;;;;;;3.58;1.50;;;;;;;;;;6279464;22;20191;-77
2023/11/24 03:25:50;;;;;;;2.40;1.20;;;;;;;;;;6279595;22;20711;-77
2023/11/24 03:28:18;;;;;;;3.35;1.90;;;;;;;;;;6279637;22;20192;-77
2023/11/24 03:30:47;;;;;;;2.90;1.50;;;;;;;;;;6279686;22;20180;-77
2023/11/24 03:33:16;;;;;;;4.97;2.33;;;;;;;;;;6280053;22;20199;-78
2023/11/24 03:35:43;;;;;;;5.30;1.80;;;;;;;;;;6279886;22;20172;-77
2023/11/24 03:38:11;;;;;;;5.65;2.13;;;;;;;;;;6279192;22;20199;-78
2023/11/24 03:40:38;;;;;;;4.28;1.70;;;;;;;;;;6277868;22;20179;-77
2023/11/24 03:43:06;;;;;;;3.47;2.17;;;;;;;;;;6278376;22;20681;-77
2023/11/24 03:45:33;;;;;;;4.95;1.75;;;;;;;;;;6278081;22;20172;-77
2023/11/24 03:48:02;;;;;;;5.45;1.80;;;;;;;;;;6277471;22;20193;-77
2023/11/24 03:50:31;;;;;;;4.22;1.90;;;;;;;;;;6278567;22;20508;-77
2023/11/24 03:52:59;;;;;;;3.45;1.63;;;;;;;;;;6277674;22;20283;-77
2023/11/24 03:55:26;;;;;;;5.25;1.85;;;;;;;;;;6277769;22;20520;-77
2023/11/24 03:57:53;;;;;;;6.47;1.65;;;;;;;;;;6278535;22;20692;-78
2023/11/24 04:00:22;;;;;;;4.68;1.95;;;;;;;;;;6277689;22;20256;-77
2023/11/24 04:02:49;;;;;;;3.67;1.25;;;;;;;;;;6277292;22;20172;-77
2023/11/24 04:05:17;;;;;;;5.47;2.38;;;;;;;;;;6277701;22;20184;-77
2023/11/24 04:07:47;;;;;;;3.85;1.50;;;;;;;;;;6277965;22;20271;-78
2023/11/24 04:10:14;;;;;;;7.60;4.15;;;;;;;;;;6278596;22;20172;-77
2023/11/24 04:12:42;;;;;;;3.15;1.67;;;;;;;;;;6277663;22;20280;-77
2023/11/24 04:15:10;;;;;;;7.25;1.85;;;;;;;;;;6277876;22;20180;-77
2023/11/24 04:17:38;;;;;;;2.47;1.75;;;;;;;;;;6277630;22;20267;-77
2023/11/24 04:20:07;;;;;;;6.55;2.38;;;;;;;;;;6277941;22;20182;-77
2023/11/24 04:22:35;;;;;;;6.43;1.92;;;;;;;;;;6277522;22;20187;-77
2023/11/24 04:25:05;;;;;;;4.10;1.73;;;;;;;;;;6277735;22;20179;-77
2023/11/24 04:27:32;;;;;;;4.38;1.88;;;;;;;;;;6279717;22;20200;-78
2023/11/24 04:30:00;;;;;;;4.53;2.00;;;;;;;;;;6278137;22;20690;-78
2023/11/24 04:32:27;;;;;;;6.65;3.05;;;;;;;;;;6278945;22;20207;-77
2023/11/24 04:34:55;;;;;;;3.97;1.83;;;;;;;;;;6277862;22;20173;-77
2023/11/24 04:37:22;;;;;;;8.15;2.65;;;;;;;;;;6278709;22;20279;-77
2023/11/24 04:39:49;;;;;;;5.80;1.63;;;;;;;;;;6279448;22;20207;-77
2023/11/24 04:42:18;;;;;;;4.35;1.50;;;;;;;;;;6278229;22;20263;-77
2023/11/24 04:44:46;;;;;;;2.92;1.80;;;;;;;;;;6278136;22;20558;-77
2023/11/24 04:47:14;;;;;;;3.92;1.60;;;;;;;;;;6278365;22;20247;-77
2023/11/24 04:49:43;;;;;;;4.63;1.65;;;;;;;;;;6278975;22;20575;-77
2023/11/24 04:52:10;;;;;;;4.78;1.90;;;;;;;;;;6279004;22;20644;-77
2023/11/24 04:54:38;;;;;;;4.75;2.10;;;;;;;;;;6278727;22;20783;-77
2023/11/24 04:57:08;;;;;;;5.95;1.95;;;;;;;;;;6279018;22;20176;-77
2023/11/24 04:59:41;;;;;;;5.07;1.52;;;;;;;;;;6278992;22;20161;-77
2023/11/24 05:02:08;;;;;;;8.05;2.70;;;;;;;;;;6278862;22;20656;-77
2023/11/24 05:04:37;;;;;;;6.20;1.75;;;;;;;;;;6278476;22;20168;-77
2023/11/24 05:07:05;;;;;;;5.10;1.75;;;;;;;;;;6278640;22;20175;-77
2023/11/24 05:09:32;;;;;;;7.60;1.80;;;;;;;;;;6279239;22;20566;-76
2023/11/24 05:12:00;;;;;;;2.58;1.48;;;;;;;;;;6278715;22;20263;-77
2023/11/24 05:14:27;;;;;;;5.85;1.58;;;;;;;;;;6278570;22;20223;-78
2023/11/24 05:16:56;;;;;;;7.90;2.40;;;;;;;;;;6278886;22;20186;-77
2023/11/24 05:19:24;;;;;;;2.88;1.67;;;;;;;;;;6279026;22;20255;-77
2023/11/24 05:21:51;;;;;;;4.97;2.30;;;;;;;;;;6278883;22;20183;-78
2023/11/24 05:24:19;;;;;;;6.32;1.73;;;;;;;;;;6278287;22;20184;-77
2023/11/24 05:26:47;;;;;;;4.50;1.67;;;;;;;;;;6278035;22;20648;-77
2023/11/24 05:29:14;;;;;;;6.55;2.50;;;;;;;;;;6277632;22;20197;-77
2023/11/24 05:31:42;;;;;;;3.95;1.80;;;;;;;;;;6277474;22;20176;-77
2023/11/24 05:34:11;;;;;;;7.25;2.00;;;;;;;;;;6278415;22;20528;-77
2023/11/24 05:36:38;;;;;;;4.95;1.30;;;;;;;;;;6277848;22;20259;-77
2023/11/24 05:39:07;;;;;;;2.72;1.80;;;;;;;;;;6277096;22;20279;-77
2023/11/24 05:41:35;;;;;;;4.20;1.35;;;;;;;;;;6277194;22;20208;-77
2023/11/24 05:44:02;;;;;;;5.70;3.22;;;;;;;;;;6278306;22;20206;-77
2023/11/24 05:46:30;;;;;;;3.85;1.30;;;;;;;;;;6276415;22;20214;-77
2023/11/24 05:48:58;;;;;;;5.30;2.30;;;;;;;;;;6277825;22;20253;-77
2023/11/24 05:51:27;;;;;;;8.95;2.08;;;;;;;;;;6277298;22;20176;-77
2023/11/24 05:53:55;;;;;;;8.38;2.10;;;;;;;;;;6277793;22;20196;-77
2023/11/24 05:56:22;;;;;;;3.72;1.83;;;;;;;;;;6277177;22;20176;-77
2023/11/24 05:58:51;;;;;;;4.00;1.67;;;;;;;;;;6277305;22;20196;-77
2023/11/24 06:01:20;;;;;;;3.72;1.63;;;;;;;;;;6277591;22;20168;-77
2023/11/24 06:03:48;;;;;;;3.80;1.50;;;;;;;;;;6276977;22;20176;-77
2023/11/24 06:06:15;;;;;;;2.10;1.30;;;;;;;;;;6277722;22;20232;-76
2023/11/24 06:08:44;;;;;;;6.28;2.20;;;;;;;;;;6277421;22;20281;-77
2023/11/24 06:11:11;;;;;;;3.22;1.63;;;;;;;;;;6277715;22;20536;-76
2023/11/24 06:13:39;;;;;;;3.58;1.33;;;;;;;;;;6277199;22;20271;-77
2023/11/24 06:16:07;;;;;;;2.67;1.50;;;;;;;;;;6277329;22;20208;-77
2023/11/24 06:18:35;;;;;;;4.20;2.50;;;;;;;;;;6278445;22;20198;-77
2023/11/24 06:21:04;;;;;;;3.40;1.40;;;;;;;;;;6276545;22;20204;-77
2023/11/24 06:23:31;;;;;;;3.22;2.63;;;;;;;;;;6276815;22;20698;-77
2023/11/24 06:26:00;;;;;;;5.53;1.60;;;;;;;;;;6276575;22;20247;-77
2023/11/24 06:28:27;;;;;;;2.67;2.00;;;;;;;;;;6276462;22;20242;-77
2023/11/24 06:30:55;;;;;;;3.83;1.42;;;;;;;;;;6277217;22;20271;-77
2023/11/24 06:33:23;;;;;;;2.97;1.95;;;;;;;;;;6276780;22;20172;-77
2023/11/24 06:35:51;;;;;;;9.95;1.60;;;;;;;;;;6277318;22;20176;-78
2023/11/24 06:38:18;;;;;;;5.57;2.97;;;;;;;;;;6276345;22;20223;-77
2023/11/24 06:40:46;;;;;;;2.70;1.95;;;;;;;;;;6276612;22;20651;-77
2023/11/24 06:43:14;;;;;;;4.38;2.00;;;;;;;;;;6277011;22;20203;-77
2023/11/24 06:45:44;;;;;;;2.72;1.90;;;;;;;;;;6277252;22;20168;-77
2023/11/24 06:48:11;;;;;;;4.07;1.92;;;;;;;;;;6276878;22;20278;-77
2023/11/24 06:50:39;;;;;;;4.35;2.33;;;;;;;;;;6276426;22;20172;-78
2023/11/24 06:53:06;;;;;;;5.68;1.60;;;;;;;;;;6277138;22;20551;-77
2023/11/24 06:55:34;;;;;;;7.63;1.92;;;;;;;;;;6277591;22;20570;-77
2023/11/24 06:58:01;;;;;;;5.50;2.08;;;;;;;;;;6276987;22;20675;-77
2023/11/24 07:00:30;;;;;;;2.78;2.17;;;;;;;;;;6276402;22;20203;-77
2023/11/24 07:02:57;;;;;;;3.10;1.17;;;;;;;;;;6276667;22;20257;-77
2023/11/24 07:05:25;;;;;;;5.25;2.30;;;;;;;;;;6276730;22;20564;-77
2023/11/24 07:07:52;;;;;;;3.35;1.50;;;;;;;;;;6277182;22;20271;-77
2023/11/24 07:10:22;;;;;;;6.07;1.85;;;;;;;;;;6276812;22;20204;-77
2023/11/24 07:12:49;;;;;;;1.65;1.30;;;;;;;;;;6276972;22;20218;-77
2023/11/24 07:15:17;;;;;;;5.93;1.30;;;;;;;;;;6276849;22;20196;-77
2023/11/24 07:17:46;;;;;;;7.60;2.70;;;;;;;;;;6276827;22;20247;-77
2023/11/24 07:20:13;;;;;;;3.90;1.70;;;;;;;;;;6276565;22;20173;-77
2023/11/24 07:22:41;;;;;;;5.05;1.67;;;;;;;;;;6276913;22;20215;-77
2023/11/24 07:25:11;;;;;;;4.20;1.52;;;;;;;;;;6276731;22;20153;-78
2023/11/24 07:27:39;;;;;;;2.65;1.42;;;;;;;;;;6276503;22;20228;-77
2023/11/24 07:30:08;;;;;;;3.83;1.40;;;;;;;;;;6277006;22;20255;-77
2023/11/24 07:32:36;;;;;;;3.72;1.48;;;;;;;;;;6277179;22;20561;-77
2023/11/24 07:35:08;;;;;;;2.45;1.35;;;;;;;;;;6276837;22;20192;-77
2023/11/24 07:37:35;;;;;;;2.40;1.33;;;;;;;;;;6277512;22;20200;-77
2023/11/24 07:40:06;;;;;;;3.17;1.42;;;;;;;;;;6277153;22;20267;-77
2023/11/24 07:42:34;;;;;;;4.70;1.50;;;;;;;;;;6277766;22;20195;-77
2023/11/24 07:45:02;;;;;;;2.45;1.10;;;;;;;;;;6278812;22;20172;-77
2023/11/24 07:47:29;;;;;;;2.35;1.60;;;;;;;;;;6278565;22;20196;-78
2023/11/24 07:49:57;;;;;;;5.90;2.65;;;;;;;;;;6278504;22;20255;-77
2023/11/24 07:52:26;;;;;;;3.60;1.50;;;;;;;;;;6278928;22;20622;-77
2023/11/24 07:54:54;;;;;;;3.85;1.40;;;;;;;;;;6278662;22;20199;-77
2023/11/24 07:57:24;;;;;;;2.05;1.35;;;;;;;;;;6278291;22;20196;-77
2023/11/24 07:59:52;;;;;;;2.08;1.40;;;;;;;;;;6278943;22;20164;-77
2023/11/24 08:02:19;;;;;;;4.70;1.45;;;;;;;;;;6278852;22;20177;-76
2023/11/24 08:04:47;;;;;;;1.27;1.08;;;;;;;;;;6279089;22;20168;-77
2023/11/24 08:07:14;;;;;;;4.57;1.38;;;;;;;;;;6278508;22;20195;-77
2023/11/24 08:09:44;;;;;;;4.72;1.40;;;;;;;;;;6278546;22;20178;-77
2023/11/24 08:12:11;;;;;;;2.70;1.25;;;;;;;;;;6278679;22;20259;-77
2023/11/24 08:14:39;;;;;;;2.10;1.40;;;;;;;;;;6278177;22;20196;-77
2023/11/24 08:17:06;;;;;;;4.28;1.50;;;;;;;;;;6278053;22;20176;-77
2023/11/24 08:19:35;;;;;;;3.78;1.70;;;;;;;;;;6278492;22;20206;-77
2023/11/24 08:22:04;;;;;;;6.32;2.15;;;;;;;;;;6279026;22;20172;-77
2023/11/24 08:24:33;;;;;;;2.80;1.55;;;;;;;;;;6278833;22;20157;-77
2023/11/24 08:27:02;;;;;;;4.70;2.20;;;;;;;;;;6279220;22;20203;-77
2023/11/24 08:29:30;;;;;;;2.78;1.40;;;;;;;;;;6277859;22;20214;-77
2023/11/24 08:31:59;;;;;;;5.90;1.73;;;;;;;;;;6278351;22;20512;-77
2023/11/24 08:34:26;;;;;;;2.45;1.27;;;;;;;;;;6277990;22;20219;-77
2023/11/24 08:36:54;;;;;;;4.97;1.77;;;;;;;;;;6278403;22;20172;-77
2023/11/24 08:39:21;;;;;;;3.05;1.08;;;;;;;;;;6277650;22;20201;-77
2023/11/24 08:41:49;;;;;;;1.65;0.98;;;;;;;;;;6278178;22;20203;-77
2023/11/24 08:44:24;;;;;;;4.43;2.53;;;;;;;;;;6278710;22;20200;-77
2023/11/24 08:46:52;;;;;;;2.55;1.23;;;;;;;;;;6278396;22;20156;-77
2023/11/24 08:49:19;;;;;;;5.55;1.90;;;;;;;;;;6277782;22;20199;-77
2023/11/24 08:51:47;;;;;;;3.63;1.58;;;;;;;;;;6277396;22;20654;-77
2023/11/24 08:54:14;;;;;;;1.05;0.98;;;;;;;;;;6276955;22;20200;-76
2023/11/24 08:56:42;;;;;;;1.52;1.10;;;;;;;;;;6277300;22;20195;-77
2023/11/24 08:59:10;;;;;;;2.35;1.20;;;;;;;;;;6277597;22;20275;-78
2023/11/24 09:01:39;;;;;;;2.75;1.00;;;;;;;;;;6277635;22;20184;-77
2023/11/24 09:04:09;;;;;;;3.53;1.45;;;;;;;;;;6278202;22;20211;-77
2023/11/24 09:06:38;;;;;;;2.20;0.90;;;;;;;;;;6279678;22;20251;-77
2023/11/24 09:09:07;;;;;;;6.30;1.63;;;;;;;;;;6278163;22;20188;-77
2023/11/24 09:11:35;;;;;;;2.65;1.27;;;;;;;;;;6278899;22;20199;-77
2023/11/24 09:14:05;;;;;;;4.63;1.20;;;;;;;;;;6278478;22;20173;-77
2023/11/24 09:16:34;;;;;;;2.47;1.00;;;;;;;;;;6278947;22;20293;-78
2023/11/24 09:19:02;;;;;;;1.27;1.17;;;;;;;;;;6278931;22;20235;-77
2023/11/24 09:21:33;;;;;;;3.28;1.63;;;;;;;;;;6279072;22;20518;-77
2023/11/24 09:24:01;;;;;;;2.88;1.08;;;;;;;;;;6277644;22;20184;-77
2023/11/24 09:26:28;;;;;;;1.95;1.20;;;;;;;;;;6278146;22;20204;-77
2023/11/24 09:28:56;;;;;;;0.98;0.90;;;;;;;;;;6277434;22;20635;-78
2023/11/24 09:31:23;;;;;;;0.60;0.60;;;;;;;;;;6277554;22;20199;-77
2023/11/24 09:33:51;;;;;;;2.25;1.40;;;;;;;;;;6277552;22;20180;-77
2023/11/24 09:36:20;;;;;;;1.20;0.80;;;;;;;;;;6276857;22;20199;-78
2023/11/24 09:38:48;;;;;;;0.73;0.65;;;;;;;;;;6277410;22;20595;-77
2023/11/24 09:41:17;;;;;;;2.63;1.30;;;;;;;;;;6277651;22;20180;-77
2023/11/24 09:43:44;;;;;;;1.98;1.20;;;;;;;;;;6278318;22;20255;-77
2023/11/24 09:46:12;;;;;;;1.40;0.95;;;;;;;;;;6277813;22;20256;-77
2023/11/24 09:48:43;;;;;;;1.33;0.80;;;;;;;;;;6278206;22;20192;-77
2023/11/24 09:51:10;;;;;;;1.27;0.85;;;;;;;;;;6278224;22;20612;-77
2023/11/24 09:53:41;;;;;;;1.90;1.20;;;;;;;;;;6277283;22;20185;-76
2023/11/24 09:56:09;;;;;;;1.75;1.10;;;;;;;;;;6276446;22;20203;-77
2023/11/24 09:58:36;;;;;;;1.77;0.90;;;;;;;;;;6277989;22;20196;-77
2023/11/24 10:01:13;;;;;;;1.08;0.93;;;;;;;;;;6278171;22;20173;-77
2023/11/24 10:03:40;;;;;;;1.02;0.82;;;;;;;;;;6277858;22;20239;-77
2023/11/24 10:06:09;;;;;;;2.80;0.98;;;;;;;;;;6276972;22;20575;-77
2023/11/24 10:08:39;;;;;;;2.38;0.70;;;;;;;;;;6278139;22;20680;-77
2023/11/24 10:11:14;;;;;;;1.70;0.80;;;;;;;;;;6277073;22;20255;-77
2023/11/24 10:13:43;;;;;;;0.60;0.60;;;;;;;;;;6276805;22;20210;-78
2023/11/24 10:16:11;;;;;;;1.75;0.90;;;;;;;;;;6276578;22;20203;-77
2023/11/24 10:18:39;;;;;;;0.98;0.68;;;;;;;;;;6276388;22;20271;-78
2023/11/24 10:21:07;;;;;;;0.88;0.80;;;;;;;;;;6275461;22;20208;-77
2023/11/24 10:23:36;;;;;;;0.60;0.55;;;;;;;;;;6276187;22;20188;-77
2023/11/24 10:26:13;;;;;;;0.65;0.63;;;;;;;;;;6276291;22;20168;-77
2023/11/24 10:28:40;;;;;;;1.80;0.90;;;;;;;;;;6276033;22;20200;-77
2023/11/24 10:31:08;;;;;;;1.48;0.90;;;;;;;;;;6276047;22;20574;-77
2023/11/24 10:33:36;;;;;;;1.70;0.85;;;;;;;;;;6276032;22;20176;-77
2023/11/24 10:36:06;;;;;;;1.88;1.75;;;;;;;;;;6275442;22;20199;-77
2023/11/24 10:38:35;;;;;;;0.90;0.90;;;;;;;;;;6276221;22;20192;-77
2023/11/24 10:41:06;;;;;;;1.85;1.38;;;;;;;;;;6275913;22;20180;-77
2023/11/24 10:43:36;;;;;;;3.42;0.90;;;;;;;;;;6276341;22;20157;-77
2023/11/24 10:46:11;;;;;;;0.80;0.80;;;;;;;;;;6275741;22;20255;-77
2023/11/24 10:48:47;;;;;;;2.53;1.40;;;;;;;;;;6276021;22;20227;-77
2023/11/24 10:51:23;;;;;;;1.08;0.95;;;;;;;;;;6276345;22;20490;-77
2023/11/24 10:53:52;;;;;;;2.67;0.95;;;;;;;;;;6276472;22;20161;-77
2023/11/24 10:56:21;;;;;;;1.98;1.00;;;;;;;;;;6276221;22;20196;-76
2023/11/24 10:58:51;;;;;;;1.27;1.00;;;;;;;;;;6276238;22;20192;-78
2023/11/24 11:01:18;;;;;;;1.40;1.02;;;;;;;;;;6276458;22;20172;-77
2023/11/24 11:03:46;;;;;;;1.85;0.90;;;;;;;;;;6276482;22;20176;-77
2023/11/24 11:06:20;;;;;;;4.32;1.92;;;;;;;;;;6276375;22;20339;-77
2023/11/24 11:08:56;;;;;;;1.25;1.20;;;;;;;;;;6277501;22;20530;-76
2023/11/24 11:11:56;;;;;;;2.08;1.00;;;;;;;;;;6276420;22;20160;-78
2023/11/24 11:14:24;;;;;;;2.53;1.20;;;;;;;;;;6277023;22;20176;-77
2023/11/24 11:16:53;;;;;;;2.50;0.95;;;;;;;;;;6277191;22;20526;-77
2023/11/24 11:19:31;;;;;;;1.92;1.30;;;;;;;;;;6278634;22;20232;-77
2023/11/24 11:22:00;;;;;;;3.25;1.77;;;;;;;;;;6278652;22;20161;-77
2023/11/24 11:24:29;;;;;;;3.45;3.13;;;;;;;;;;6279350;22;20164;-77
2023/11/24 11:26:59;;;;;;;5.03;3.10;;;;;;;;;;6279272;22;20175;-77
2023/11/24 11:29:28;;;;;;;3.42;1.48;;;;;;;;;;6279784;22;20182;-77
2023/11/24 11:31:56;;;;;;;5.35;2.05;;;;;;;;;;6279430;22;20474;-77
2023/11/24 11:34:31;;;;;;;3.90;1.50;;;;;;;;;;6279336;22;20198;-77
2023/11/24 11:37:06;;;;;;;2.63;1.20;;;;;;;;;;6278000;22;20234;-77
2023/11/24 11:39:43;;;;;;;2.75;1.40;;;;;;;;;;6279345;22;20161;-78
2023/11/24 11:42:12;;;;;;;3.15;1.48;;;;;;;;;;6280308;22;20239;-77
2023/11/24 11:44:46;;;;;;;3.13;1.30;;;;;;;;;;6280519;22;20203;-77
2023/11/24 11:47:23;;;;;;;6.43;1.60;;;;;;;;;;6279341;22;20161;-78
2023/11/24 11:49:53;;;;;;;5.85;3.30;;;;;;;;;;6279702;22;20670;-77
2023/11/24 11:52:23;;;;;;;6.97;2.03;;;;;;;;;;6279714;22;20547;-77
2023/11/24 11:54:52;;;;;;;2.17;1.63;;;;;;;;;;6279208;22;20176;-77
2023/11/24 11:57:21;;;;;;;3.97;1.60;;;;;;;;;;6278878;22;20200;-77
2023/11/24 11:59:49;;;;;;;5.35;2.05;;;;;;;;;;6279625;22;20178;-77
2023/11/24 12:02:20;;;;;;;3.28;1.42;;;;;;;;;;6279079;22;20259;-77
2023/11/24 12:04:49;;;;;;;3.05;1.50;;;;;;;;;;6279113;22;20164;-77
2023/11/24 12:07:18;;;;;;;5.43;1.77;;;;;;;;;;6279808;22;20176;-77
2023/11/24 12:09:47;;;;;;;3.45;1.23;;;;;;;;;;6279596;22;20259;-77
2023/11/24 12:12:14;;;;;;;4.22;2.00;;;;;;;;;;6279326;22;20233;-77
2023/11/24 12:14:44;;;;;;;3.08;1.65;;;;;;;;;;6279185;22;20552;-77
2023/11/24 12:17:12;;;;;;;4.43;1.50;;;;;;;;;;6278834;22;20280;-77
2023/11/24 12:19:41;;;;;;;3.28;1.42;;;;;;;;;;6279259;22;20204;-77
2023/11/24 12:22:09;;;;;;;5.68;1.70;;;;;;;;;;6278744;22;20562;-77
2023/11/24 12:24:41;;;;;;;4.88;1.90;;;;;;;;;;6279264;22;20542;-78
2023/11/24 12:27:08;;;;;;;12.43;2.15;;;;;;;;;;6279449;22;20191;-78
2023/11/24 12:29:41;;;;;;;4.07;1.42;;;;;;;;;;6278249;22;20176;-78
2023/11/24 12:32:11;;;;;;;3.33;1.50;;;;;;;;;;6278692;22;20244;-77
2023/11/24 12:34:43;;;;;;;3.45;1.05;;;;;;;;;;6278562;22;20214;-77
2023/11/24 12:37:10;;;;;;;1.42;1.13;;;;;;;;;;6279267;22;20180;-77
2023/11/24 12:39:40;;;;;;;3.05;1.42;;;;;;;;;;6279308;22;20251;-77
2023/11/24 12:42:08;;;;;;;2.65;1.40;;;;;;;;;;6278144;22;20185;-77
2023/11/24 12:44:36;;;;;;;3.08;1.60;;;;;;;;;;6278933;22;20255;-77
2023/11/24 12:47:16;;;;;;;3.33;1.55;;;;;;;;;;6279134;22;20211;-77
2023/11/24 12:50:00;;;;;;;5.45;1.83;;;;;;;;;;6279371;22;20156;-77
2023/11/24 12:52:31;;;;;;;3.95;1.75;;;;;;;;;;6278716;22;20167;-77
2023/11/24 12:54:58;;;;;;;4.57;1.50;;;;;;;;;;6279012;22;20192;-78
2023/11/24 12:57:26;;;;;;;3.95;1.77;;;;;;;;;;6277517;22;20255;-77
2023/11/24 12:59:56;;;;;;;3.80;1.48;;;;;;;;;;6277146;22;20173;-77
2023/11/24 13:02:27;;;;;;;3.97;1.88;;;;;;;;;;6278718;22;20228;-77
2023/11/24 13:04:54;;;;;;;2.50;1.50;;;;;;;;;;6278060;22;20161;-78
2023/11/24 13:07:22;;;;;;;4.53;1.73;;;;;;;;;;6278080;22;20199;-77
2023/11/24 13:09:49;;;;;;;6.43;2.05;;;;;;;;;;6277051;22;20251;-77
2023/11/24 13:12:18;;;;;;;6.30;2.00;;;;;;;;;;6277734;22;20202;-77
2023/11/24 13:14:45;;;;;;;5.05;2.38;;;;;;;;;;6277336;22;20250;-77
2023/11/24 13:17:13;;;;;;;3.75;1.90;;;;;;;;;;6277629;22;20181;-77
2023/11/24 13:19:42;;;;;;;10.82;2.03;;;;;;;;;;6278309;22;20251;-78
2023/11/24 13:22:10;;;;;;;3.50;1.42;;;;;;;;;;6278672;22;20263;-76
2023/11/24 13:24:37;;;;;;;2.75;1.38;;;;;;;;;;6278263;22;20160;-77
2023/11/24 13:27:05;;;;;;;4.75;1.90;;;;;;;;;;6278232;22;20228;-77
2023/11/24 13:29:33;;;;;;;2.83;2.08;;;;;;;;;;6278243;22;20172;-78
2023/11/24 13:32:00;;;;;;;8.05;1.83;;;;;;;;;;6277947;22;20199;-77
2023/11/24 13:34:28;;;;;;;5.38;1.83;;;;;;;;;;6278848;22;20300;-77
2023/11/24 13:36:57;;;;;;;5.75;1.70;;;;;;;;;;6278604;22;20177;-78
2023/11/24 13:39:24;;;;;;;2.10;1.38;;;;;;;;;;6277406;22;20206;-77
2023/11/24 13:41:52;;;;;;;4.10;1.50;;;;;;;;;;6277107;22;20245;-78
2023/11/24 13:44:20;;;;;;;3.22;1.48;;;;;;;;;;6277732;22;20228;-77
2023/11/24 13:46:48;;;;;;;4.95;2.28;;;;;;;;;;6278073;22;20259;-77
2023/11/24 13:49:16;;;;;;;2.95;1.85;;;;;;;;;;6277478;22;20502;-77
2023/11/24 13:51:45;;;;;;;3.38;1.45;;;;;;;;;;6278625;22;20230;-77
2023/11/24 13:54:15;;;;;;;5.80;1.60;;;;;;;;;;6278107;22;20173;-77
2023/11/24 13:56:44;;;;;;;4.93;1.88;;;;;;;;;;6278952;22;20485;-77
2023/11/24 13:59:12;;;;;;;10.18;1.80;;;;;;;;;;6278622;22;20208;-77
2023/11/24 14:01:40;;;;;;;4.20;2.00;;;;;;;;;;6277632;22;20172;-77
2023/11/24 14:04:10;;;;;;;3.38;1.33;;;;;;;;;;6277115;22;20180;-77
2023/11/24 14:06:39;;;;;;;3.03;1.25;;;;;;;;;;6277493;22;20187;-77
2023/11/24 14:09:11;;;;;;;4.03;2.00;;;;;;;;;;6277745;22;20655;-77
2023/11/24 14:11:40;;;;;;;2.45;1.30;;;;;;;;;;6277412;22;20171;-77
2023/11/24 14:14:07;;;;;;;5.07;1.27;;;;;;;;;;6276950;22;20713;-77
2023/11/24 14:16:35;;;;;;;5.80;1.75;;;;;;;;;;6277383;22;20232;-77
2023/11/24 14:19:03;;;;;;;3.83;1.40;;;;;;;;;;6276947;22;20533;-77
2023/11/24 14:21:31;;;;;;;4.22;1.33;;;;;;;;;;6277103;22;20173;-77
2023/11/24 14:24:00;;;;;;;9.02;3.20;;;;;;;;;;6277659;22;20241;-76
2023/11/24 14:26:28;;;;;;;4.45;3.10;;;;;;;;;;6277432;22;20229;-77
2023/11/24 14:28:57;;;;;;;6.88;1.90;;;;;;;;;;6277477;22;20271;-77
2023/11/24 14:31:25;;;;;;;5.78;2.20;;;;;;;;;;6277321;22;20231;-77
2023/11/24 14:33:52;;;;;;;1.50;1.40;;;;;;;;;;6277474;22;20426;-77
2023/11/24 14:36:20;;;;;;;3.63;1.50;;;;;;;;;;6276630;22;20200;-77
2023/11/24 14:38:48;;;;;;;4.78;2.50;;;;;;;;;;6277753;22;20250;-77
2023/11/24 14:41:17;;;;;;;3.05;2.17;;;;;;;;;;6277249;22;20176;-77
2023/11/24 14:43:46;;;;;;;3.00;1.83;;;;;;;;;;6277313;22;20172;-77
2023/11/24 14:46:16;;;;;;;3.72;1.55;;;;;;;;;;6277315;22;20172;-77
2023/11/24 14:48:44;;;;;;;1.95;1.20;;;;;;;;;;6277678;22;20189;-77
2023/11/24 14:51:12;;;;;;;1.00;1.00;;;;;;;;;;6277066;22;20176;-77